Ciney, Belgium
Current Conditions -  °F | °C
As of 3:25 AM on Monday 26 Jan 2015 (Local Time) from EBFS Reporting Station
Haze Haze  
Wind Chill: 30°   Ceiling: 400
Heat Index: 36°   Visibility: 0.75mi
Dew Point: 36°   Wind: 7mph
Humidity: 100%   Direction: 210°SSW
Pressure: 30.27"   Gusts: NA
Location:  50.29°N, 5.1°E
Report Text: EBFS 260225Z 21006KT 1200 BR SCT002 BKN004 02/02 Q1025 AMB
Loading
Personal Weather Stations






























Interactive Weather Map New forecast layout! Learn more

10-Day Weather Forecast

Advertisements
Track Severe Weather on mobile